sensor_id;sensor_type;location;lat;lon;timestamp;P1;durP1;ratioP1;P2;durP2;ratioP2
54464;SDS011;40374;49.480;20.016;2023-02-28T00:01:35;22.13;;;6.18;;
54464;SDS011;40374;49.480;20.016;2023-02-28T00:04:04;14.40;;;5.15;;
54464;SDS011;40374;49.480;20.016;2023-02-28T00:06:36;14.93;;;5.72;;
54464;SDS011;40374;49.480;20.016;2023-02-28T00:09:03;13.60;;;5.60;;
54464;SDS011;40374;49.480;20.016;2023-02-28T00:11:31;15.65;;;5.97;;
54464;SDS011;40374;49.480;20.016;2023-02-28T00:13:58;15.13;;;6.32;;
54464;SDS011;40374;49.480;20.016;2023-02-28T00:16:26;14.80;;;7.15;;
54464;SDS011;40374;49.480;20.016;2023-02-28T00:18:53;12.63;;;5.60;;
54464;SDS011;40374;49.480;20.016;2023-02-28T00:21:20;19.83;;;6.13;;
54464;SDS011;40374;49.480;20.016;2023-02-28T00:23:48;15.93;;;6.20;;
54464;SDS011;40374;49.480;20.016;2023-02-28T00:26:16;14.68;;;5.43;;
54464;SDS011;40374;49.480;20.016;2023-02-28T00:28:47;18.77;;;6.22;;
54464;SDS011;40374;49.480;20.016;2023-02-28T00:31:15;11.43;;;5.15;;
54464;SDS011;40374;49.480;20.016;2023-02-28T00:33:45;13.13;;;6.25;;
54464;SDS011;40374;49.480;20.016;2023-02-28T00:36:14;12.73;;;6.63;;
54464;SDS011;40374;49.480;20.016;2023-02-28T00:38:41;17.27;;;5.57;;
54464;SDS011;40374;49.480;20.016;2023-02-28T00:41:09;13.43;;;5.47;;
54464;SDS011;40374;49.480;20.016;2023-02-28T00:43:37;10.05;;;5.50;;
54464;SDS011;40374;49.480;20.016;2023-02-28T00:46:06;14.38;;;5.47;;
54464;SDS011;40374;49.480;20.016;2023-02-28T00:48:34;12.13;;;5.45;;
54464;SDS011;40374;49.480;20.016;2023-02-28T00:51:02;14.48;;;5.00;;
54464;SDS011;40374;49.480;20.016;2023-02-28T00:53:30;13.90;;;5.88;;
54464;SDS011;40374;49.480;20.016;2023-02-28T00:55:59;17.55;;;5.45;;
54464;SDS011;40374;49.480;20.016;2023-02-28T00:58:27;15.10;;;5.93;;
54464;SDS011;40374;49.480;20.016;2023-02-28T01:00:54;16.13;;;6.30;;
54464;SDS011;40374;49.480;20.016;2023-02-28T01:03:22;17.15;;;6.80;;
54464;SDS011;40374;49.480;20.016;2023-02-28T01:05:50;18.13;;;6.47;;
54464;SDS011;40374;49.480;20.016;2023-02-28T01:08:19;20.48;;;7.82;;
54464;SDS011;40374;49.480;20.016;2023-02-28T01:10:47;22.45;;;8.07;;
54464;SDS011;40374;49.480;20.016;2023-02-28T01:13:17;17.30;;;6.60;;
54464;SDS011;40374;49.480;20.016;2023-02-28T01:15:46;22.10;;;7.80;;
54464;SDS011;40374;49.480;20.016;2023-02-28T01:18:18;22.10;;;6.63;;
54464;SDS011;40374;49.480;20.016;2023-02-28T01:20:47;14.50;;;5.65;;
54464;SDS011;40374;49.480;20.016;2023-02-28T01:23:15;28.55;;;8.57;;
54464;SDS011;40374;49.480;20.016;2023-02-28T01:25:43;21.98;;;7.05;;
54464;SDS011;40374;49.480;20.016;2023-02-28T01:28:10;16.15;;;6.68;;
54464;SDS011;40374;49.480;20.016;2023-02-28T01:30:38;30.45;;;8.32;;
54464;SDS011;40374;49.480;20.016;2023-02-28T01:33:05;18.02;;;6.70;;
54464;SDS011;40374;49.480;20.016;2023-02-28T01:35:33;26.92;;;8.60;;
54464;SDS011;40374;49.480;20.016;2023-02-28T01:38:02;18.00;;;6.50;;
54464;SDS011;40374;49.480;20.016;2023-02-28T01:40:47;14.38;;;4.80;;
54464;SDS011;40374;49.480;20.016;2023-02-28T01:43:20;19.13;;;7.22;;
54464;SDS011;40374;49.480;20.016;2023-02-28T01:45:54;19.30;;;6.47;;
54464;SDS011;40374;49.480;20.016;2023-02-28T01:48:25;14.40;;;5.57;;
54464;SDS011;40374;49.480;20.016;2023-02-28T01:50:59;14.35;;;4.63;;
54464;SDS011;40374;49.480;20.016;2023-02-28T01:53:32;18.33;;;5.57;;
54464;SDS011;40374;49.480;20.016;2023-02-28T01:56:05;17.42;;;5.65;;
54464;SDS011;40374;49.480;20.016;2023-02-28T01:58:36;15.07;;;5.38;;
54464;SDS011;40374;49.480;20.016;2023-02-28T02:01:04;10.13;;;4.70;;
54464;SDS011;40374;49.480;20.016;2023-02-28T02:03:32;18.27;;;5.30;;
54464;SDS011;40374;49.480;20.016;2023-02-28T02:06:02;16.55;;;5.38;;
54464;SDS011;40374;49.480;20.016;2023-02-28T02:08:30;20.73;;;5.97;;
54464;SDS011;40374;49.480;20.016;2023-02-28T02:10:59;28.58;;;7.45;;
54464;SDS011;40374;49.480;20.016;2023-02-28T02:13:38;16.90;;;5.50;;
54464;SDS011;40374;49.480;20.016;2023-02-28T02:21:51;17.17;;;5.75;;
54464;SDS011;40374;49.480;20.016;2023-02-28T02:27:47;20.10;;;7.30;;
54464;SDS011;40374;49.480;20.016;2023-02-28T02:33:42;18.83;;;6.55;;
54464;SDS011;40374;49.480;20.016;2023-02-28T02:36:39;17.00;;;6.28;;
54464;SDS011;40374;49.480;20.016;2023-02-28T02:42:28;22.05;;;9.00;;
54464;SDS011;40374;49.480;20.016;2023-02-28T02:45:06;22.58;;;7.55;;
54464;SDS011;40374;49.480;20.016;2023-02-28T02:47:42;23.35;;;7.53;;
54464;SDS011;40374;49.480;20.016;2023-02-28T02:50:12;29.95;;;9.65;;
54464;SDS011;40374;49.480;20.016;2023-02-28T02:52:49;16.10;;;6.07;;
54464;SDS011;40374;49.480;20.016;2023-02-28T02:55:22;16.92;;;6.82;;
54464;SDS011;40374;49.480;20.016;2023-02-28T02:57:52;19.20;;;7.03;;
54464;SDS011;40374;49.480;20.016;2023-02-28T03:00:26;24.75;;;7.70;;
54464;SDS011;40374;49.480;20.016;2023-02-28T03:02:57;24.98;;;7.78;;
54464;SDS011;40374;49.480;20.016;2023-02-28T03:05:29;23.38;;;8.57;;
54464;SDS011;40374;49.480;20.016;2023-02-28T03:08:06;19.45;;;8.38;;
54464;SDS011;40374;49.480;20.016;2023-02-28T03:10:38;24.33;;;7.18;;
54464;SDS011;40374;49.480;20.016;2023-02-28T03:13:24;22.88;;;7.18;;
54464;SDS011;40374;49.480;20.016;2023-02-28T03:24:34;18.42;;;8.05;;
54464;SDS011;40374;49.480;20.016;2023-02-28T03:27:09;25.73;;;8.32;;
54464;SDS011;40374;49.480;20.016;2023-02-28T03:30:03;20.65;;;7.63;;
54464;SDS011;40374;49.480;20.016;2023-02-28T03:32:55;14.27;;;6.82;;
54464;SDS011;40374;49.480;20.016;2023-02-28T03:35:32;18.35;;;6.75;;
54464;SDS011;40374;49.480;20.016;2023-02-28T03:38:05;14.45;;;6.05;;
54464;SDS011;40374;49.480;20.016;2023-02-28T03:40:41;16.80;;;6.45;;
54464;SDS011;40374;49.480;20.016;2023-02-28T03:43:18;17.15;;;6.95;;
54464;SDS011;40374;49.480;20.016;2023-02-28T03:45:50;16.02;;;6.15;;
54464;SDS011;40374;49.480;20.016;2023-02-28T03:48:21;18.38;;;7.25;;
54464;SDS011;40374;49.480;20.016;2023-02-28T03:50:54;17.00;;;6.28;;
54464;SDS011;40374;49.480;20.016;2023-02-28T03:53:27;22.05;;;7.97;;
54464;SDS011;40374;49.480;20.016;2023-02-28T03:59:15;15.50;;;6.38;;
54464;SDS011;40374;49.480;20.016;2023-02-28T04:01:47;17.50;;;6.60;;
54464;SDS011;40374;49.480;20.016;2023-02-28T04:04:16;13.30;;;5.72;;
54464;SDS011;40374;49.480;20.016;2023-02-28T04:06:44;13.52;;;5.32;;
54464;SDS011;40374;49.480;20.016;2023-02-28T04:09:13;14.57;;;5.70;;
54464;SDS011;40374;49.480;20.016;2023-02-28T04:11:42;11.02;;;4.97;;
54464;SDS011;40374;49.480;20.016;2023-02-28T04:14:18;13.18;;;5.97;;
54464;SDS011;40374;49.480;20.016;2023-02-28T04:16:46;18.70;;;5.03;;
54464;SDS011;40374;49.480;20.016;2023-02-28T04:19:14;17.98;;;6.22;;
54464;SDS011;40374;49.480;20.016;2023-02-28T04:21:43;16.08;;;5.97;;
54464;SDS011;40374;49.480;20.016;2023-02-28T04:24:16;19.20;;;7.55;;
54464;SDS011;40374;49.480;20.016;2023-02-28T04:26:49;18.48;;;7.85;;
54464;SDS011;40374;49.480;20.016;2023-02-28T04:29:22;20.98;;;7.80;;
54464;SDS011;40374;49.480;20.016;2023-02-28T04:31:59;20.23;;;8.68;;
54464;SDS011;40374;49.480;20.016;2023-02-28T04:34:30;23.25;;;9.65;;
54464;SDS011;40374;49.480;20.016;2023-02-28T04:36:59;22.02;;;9.00;;
54464;SDS011;40374;49.480;20.016;2023-02-28T04:39:39;23.50;;;8.40;;
54464;SDS011;40374;49.480;20.016;2023-02-28T04:42:08;20.40;;;8.73;;
54464;SDS011;40374;49.480;20.016;2023-02-28T04:44:36;22.63;;;10.35;;
54464;SDS011;40374;49.480;20.016;2023-02-28T04:47:03;20.42;;;9.98;;
54464;SDS011;40374;49.480;20.016;2023-02-28T04:49:31;25.73;;;10.68;;
54464;SDS011;40374;49.480;20.016;2023-02-28T04:51:59;21.08;;;9.23;;
54464;SDS011;40374;49.480;20.016;2023-02-28T04:54:26;19.17;;;9.38;;
54464;SDS011;40374;49.480;20.016;2023-02-28T04:56:55;26.65;;;10.93;;
54464;SDS011;40374;49.480;20.016;2023-02-28T04:59:23;23.35;;;10.90;;
54464;SDS011;40374;49.480;20.016;2023-02-28T05:01:50;33.05;;;12.80;;
54464;SDS011;40374;49.480;20.016;2023-02-28T05:04:17;30.08;;;12.18;;
54464;SDS011;40374;49.480;20.016;2023-02-28T05:06:45;27.95;;;11.35;;
54464;SDS011;40374;49.480;20.016;2023-02-28T05:09:12;26.23;;;11.88;;
54464;SDS011;40374;49.480;20.016;2023-02-28T05:11:40;30.77;;;11.18;;
54464;SDS011;40374;49.480;20.016;2023-02-28T05:14:10;29.83;;;12.27;;
54464;SDS011;40374;49.480;20.016;2023-02-28T05:16:39;29.73;;;13.15;;
54464;SDS011;40374;49.480;20.016;2023-02-28T05:19:08;27.40;;;9.98;;
54464;SDS011;40374;49.480;20.016;2023-02-28T05:21:37;22.25;;;10.75;;
54464;SDS011;40374;49.480;20.016;2023-02-28T05:24:08;22.90;;;9.65;;
54464;SDS011;40374;49.480;20.016;2023-02-28T05:26:38;31.60;;;12.32;;
54464;SDS011;40374;49.480;20.016;2023-02-28T05:29:07;31.83;;;12.93;;
54464;SDS011;40374;49.480;20.016;2023-02-28T05:31:36;24.77;;;10.15;;
54464;SDS011;40374;49.480;20.016;2023-02-28T05:34:04;21.10;;;9.80;;
54464;SDS011;40374;49.480;20.016;2023-02-28T05:36:31;29.40;;;10.60;;
54464;SDS011;40374;49.480;20.016;2023-02-28T05:38:59;32.55;;;10.75;;
54464;SDS011;40374;49.480;20.016;2023-02-28T05:41:26;33.45;;;11.05;;
54464;SDS011;40374;49.480;20.016;2023-02-28T05:43:54;34.67;;;11.55;;
54464;SDS011;40374;49.480;20.016;2023-02-28T05:46:22;35.88;;;12.95;;
54464;SDS011;40374;49.480;20.016;2023-02-28T05:48:49;28.52;;;11.05;;
54464;SDS011;40374;49.480;20.016;2023-02-28T05:51:17;31.63;;;12.02;;
54464;SDS011;40374;49.480;20.016;2023-02-28T05:53:45;37.08;;;13.40;;
54464;SDS011;40374;49.480;20.016;2023-02-28T05:56:12;31.70;;;12.18;;
54464;SDS011;40374;49.480;20.016;2023-02-28T05:58:40;37.70;;;13.02;;
54464;SDS011;40374;49.480;20.016;2023-02-28T06:01:21;42.22;;;13.02;;
54464;SDS011;40374;49.480;20.016;2023-02-28T06:03:52;35.70;;;14.32;;
54464;SDS011;40374;49.480;20.016;2023-02-28T06:06:19;34.15;;;14.25;;
54464;SDS011;40374;49.480;20.016;2023-02-28T06:08:47;40.22;;;15.07;;
54464;SDS011;40374;49.480;20.016;2023-02-28T06:11:15;41.45;;;16.30;;
54464;SDS011;40374;49.480;20.016;2023-02-28T06:13:42;50.28;;;18.83;;
54464;SDS011;40374;49.480;20.016;2023-02-28T06:16:10;70.13;;;23.88;;
54464;SDS011;40374;49.480;20.016;2023-02-28T06:18:39;62.70;;;23.50;;
54464;SDS011;40374;49.480;20.016;2023-02-28T06:21:06;53.38;;;19.30;;
54464;SDS011;40374;49.480;20.016;2023-02-28T06:23:34;42.35;;;18.85;;
54464;SDS011;40374;49.480;20.016;2023-02-28T06:26:01;49.30;;;19.60;;
54464;SDS011;40374;49.480;20.016;2023-02-28T06:28:29;53.53;;;20.25;;
54464;SDS011;40374;49.480;20.016;2023-02-28T06:30:56;41.92;;;16.70;;
54464;SDS011;40374;49.480;20.016;2023-02-28T06:33:24;69.93;;;23.67;;
54464;SDS011;40374;49.480;20.016;2023-02-28T06:35:52;50.78;;;19.95;;
54464;SDS011;40374;49.480;20.016;2023-02-28T06:38:20;48.70;;;20.58;;
54464;SDS011;40374;49.480;20.016;2023-02-28T06:40:54;59.58;;;22.75;;
54464;SDS011;40374;49.480;20.016;2023-02-28T06:43:22;56.15;;;22.27;;
54464;SDS011;40374;49.480;20.016;2023-02-28T06:45:50;49.28;;;21.10;;
54464;SDS011;40374;49.480;20.016;2023-02-28T06:48:17;52.15;;;22.13;;
54464;SDS011;40374;49.480;20.016;2023-02-28T06:50:45;55.85;;;23.02;;
54464;SDS011;40374;49.480;20.016;2023-02-28T06:53:14;70.95;;;22.55;;
54464;SDS011;40374;49.480;20.016;2023-02-28T06:55:41;58.67;;;23.15;;
54464;SDS011;40374;49.480;20.016;2023-02-28T06:58:09;60.33;;;22.85;;
54464;SDS011;40374;49.480;20.016;2023-02-28T07:03:12;60.80;;;21.33;;
54464;SDS011;40374;49.480;20.016;2023-02-28T07:05:42;47.33;;;18.42;;
54464;SDS011;40374;49.480;20.016;2023-02-28T07:08:09;54.55;;;19.42;;
54464;SDS011;40374;49.480;20.016;2023-02-28T07:10:37;59.78;;;19.55;;
54464;SDS011;40374;49.480;20.016;2023-02-28T07:13:05;31.95;;;12.18;;
54464;SDS011;40374;49.480;20.016;2023-02-28T07:15:34;22.05;;;9.25;;
54464;SDS011;40374;49.480;20.016;2023-02-28T07:18:07;31.50;;;10.23;;
54464;SDS011;40374;49.480;20.016;2023-02-28T07:20:34;25.05;;;9.25;;
54464;SDS011;40374;49.480;20.016;2023-02-28T07:23:02;34.53;;;9.98;;
54464;SDS011;40374;49.480;20.016;2023-02-28T07:25:29;26.60;;;9.73;;
54464;SDS011;40374;49.480;20.016;2023-02-28T07:27:57;48.85;;;15.48;;
54464;SDS011;40374;49.480;20.016;2023-02-28T07:30:25;48.05;;;14.27;;
54464;SDS011;40374;49.480;20.016;2023-02-28T07:32:53;38.03;;;12.45;;
54464;SDS011;40374;49.480;20.016;2023-02-28T07:35:22;52.65;;;14.80;;
54464;SDS011;40374;49.480;20.016;2023-02-28T07:37:50;54.83;;;17.33;;
54464;SDS011;40374;49.480;20.016;2023-02-28T07:40:18;39.78;;;12.38;;
54464;SDS011;40374;49.480;20.016;2023-02-28T07:42:45;40.05;;;11.40;;
54464;SDS011;40374;49.480;20.016;2023-02-28T07:45:16;49.35;;;16.92;;
54464;SDS011;40374;49.480;20.016;2023-02-28T07:47:44;31.38;;;8.80;;
54464;SDS011;40374;49.480;20.016;2023-02-28T07:50:13;38.38;;;13.60;;
54464;SDS011;40374;49.480;20.016;2023-02-28T07:52:42;29.83;;;10.60;;
54464;SDS011;40374;49.480;20.016;2023-02-28T07:55:09;33.47;;;11.43;;
54464;SDS011;40374;49.480;20.016;2023-02-28T07:57:37;21.80;;;6.40;;
54464;SDS011;40374;49.480;20.016;2023-02-28T08:00:05;26.38;;;7.35;;
54464;SDS011;40374;49.480;20.016;2023-02-28T08:02:40;18.13;;;6.03;;
54464;SDS011;40374;49.480;20.016;2023-02-28T08:05:07;31.02;;;9.35;;
54464;SDS011;40374;49.480;20.016;2023-02-28T08:07:35;25.42;;;7.40;;
54464;SDS011;40374;49.480;20.016;2023-02-28T08:10:03;13.85;;;5.43;;
54464;SDS011;40374;49.480;20.016;2023-02-28T08:12:32;19.20;;;7.85;;
54464;SDS011;40374;49.480;20.016;2023-02-28T08:15:00;10.63;;;4.40;;
54464;SDS011;40374;49.480;20.016;2023-02-28T08:17:27;23.48;;;9.32;;
54464;SDS011;40374;49.480;20.016;2023-02-28T08:19:55;30.08;;;9.90;;
54464;SDS011;40374;49.480;20.016;2023-02-28T08:22:23;17.10;;;6.40;;
54464;SDS011;40374;49.480;20.016;2023-02-28T08:24:50;19.65;;;8.20;;
54464;SDS011;40374;49.480;20.016;2023-02-28T08:27:18;14.00;;;5.47;;
54464;SDS011;40374;49.480;20.016;2023-02-28T08:29:48;17.23;;;5.53;;
54464;SDS011;40374;49.480;20.016;2023-02-28T08:32:15;11.32;;;5.40;;
54464;SDS011;40374;49.480;20.016;2023-02-28T08:34:55;16.98;;;5.25;;
54464;SDS011;40374;49.480;20.016;2023-02-28T08:37:23;12.55;;;4.32;;
54464;SDS011;40374;49.480;20.016;2023-02-28T08:39:50;9.13;;;4.22;;
54464;SDS011;40374;49.480;20.016;2023-02-28T08:42:22;16.15;;;4.72;;
54464;SDS011;40374;49.480;20.016;2023-02-28T08:44:50;20.98;;;6.47;;
54464;SDS011;40374;49.480;20.016;2023-02-28T08:47:17;11.00;;;5.30;;
54464;SDS011;40374;49.480;20.016;2023-02-28T08:49:45;13.20;;;5.07;;
54464;SDS011;40374;49.480;20.016;2023-02-28T08:52:13;20.40;;;6.43;;
54464;SDS011;40374;49.480;20.016;2023-02-28T08:54:40;10.25;;;5.25;;
54464;SDS011;40374;49.480;20.016;2023-02-28T08:57:08;11.90;;;5.53;;
54464;SDS011;40374;49.480;20.016;2023-02-28T08:59:35;12.05;;;5.03;;
54464;SDS011;40374;49.480;20.016;2023-02-28T09:02:03;9.63;;;4.65;;
54464;SDS011;40374;49.480;20.016;2023-02-28T09:04:30;19.58;;;4.85;;
54464;SDS011;40374;49.480;20.016;2023-02-28T09:06:58;15.57;;;7.05;;
54464;SDS011;40374;49.480;20.016;2023-02-28T09:09:25;18.77;;;5.60;;
54464;SDS011;40374;49.480;20.016;2023-02-28T09:11:54;13.20;;;5.60;;
54464;SDS011;40374;49.480;20.016;2023-02-28T09:14:22;13.48;;;5.05;;
54464;SDS011;40374;49.480;20.016;2023-02-28T09:16:50;11.48;;;5.07;;
54464;SDS011;40374;49.480;20.016;2023-02-28T09:19:17;16.00;;;5.88;;
54464;SDS011;40374;49.480;20.016;2023-02-28T09:21:44;15.63;;;6.30;;
54464;SDS011;40374;49.480;20.016;2023-02-28T09:24:12;11.40;;;4.78;;
54464;SDS011;40374;49.480;20.016;2023-02-28T09:26:42;10.60;;;4.72;;
54464;SDS011;40374;49.480;20.016;2023-02-28T09:29:30;11.90;;;4.95;;
54464;SDS011;40374;49.480;20.016;2023-02-28T09:31:58;8.80;;;4.40;;
54464;SDS011;40374;49.480;20.016;2023-02-28T09:34:28;15.30;;;5.80;;
54464;SDS011;40374;49.480;20.016;2023-02-28T09:36:58;50.15;;;12.30;;
54464;SDS011;40374;49.480;20.016;2023-02-28T09:39:25;28.73;;;9.25;;
54464;SDS011;40374;49.480;20.016;2023-02-28T09:41:54;12.77;;;6.05;;
54464;SDS011;40374;49.480;20.016;2023-02-28T09:44:25;15.63;;;4.05;;
54464;SDS011;40374;49.480;20.016;2023-02-28T09:46:57;11.00;;;4.82;;
54464;SDS011;40374;49.480;20.016;2023-02-28T09:49:37;11.90;;;4.32;;
54464;SDS011;40374;49.480;20.016;2023-02-28T09:52:18;10.68;;;4.70;;
54464;SDS011;40374;49.480;20.016;2023-02-28T09:54:49;8.70;;;4.95;;
54464;SDS011;40374;49.480;20.016;2023-02-28T10:05:47;9.02;;;4.68;;
54464;SDS011;40374;49.480;20.016;2023-02-28T10:08:37;11.13;;;5.15;;
54464;SDS011;40374;49.480;20.016;2023-02-28T10:11:09;32.40;;;10.18;;
54464;SDS011;40374;49.480;20.016;2023-02-28T10:16:28;22.90;;;6.78;;
54464;SDS011;40374;49.480;20.016;2023-02-28T10:19:06;13.77;;;5.10;;
54464;SDS011;40374;49.480;20.016;2023-02-28T10:21:38;39.10;;;13.02;;
54464;SDS011;40374;49.480;20.016;2023-02-28T10:26:45;12.73;;;6.35;;
54464;SDS011;40374;49.480;20.016;2023-02-28T10:29:15;10.45;;;4.35;;
54464;SDS011;40374;49.480;20.016;2023-02-28T10:31:42;9.48;;;4.43;;
54464;SDS011;40374;49.480;20.016;2023-02-28T10:34:11;12.82;;;5.78;;
54464;SDS011;40374;49.480;20.016;2023-02-28T10:36:40;12.57;;;5.82;;
54464;SDS011;40374;49.480;20.016;2023-02-28T10:45:06;13.35;;;5.95;;
54464;SDS011;40374;49.480;20.016;2023-02-28T10:47:34;12.52;;;5.10;;
54464;SDS011;40374;49.480;20.016;2023-02-28T10:50:26;15.00;;;5.78;;
54464;SDS011;40374;49.480;20.016;2023-02-28T10:55:42;14.93;;;6.40;;
54464;SDS011;40374;49.480;20.016;2023-02-28T10:58:22;12.77;;;5.85;;
54464;SDS011;40374;49.480;20.016;2023-02-28T11:00:51;12.07;;;5.43;;
54464;SDS011;40374;49.480;20.016;2023-02-28T11:03:23;11.20;;;5.53;;
54464;SDS011;40374;49.480;20.016;2023-02-28T11:06:04;16.58;;;5.97;;
54464;SDS011;40374;49.480;20.016;2023-02-28T11:08:53;14.18;;;6.22;;
54464;SDS011;40374;49.480;20.016;2023-02-28T11:11:45;14.52;;;5.72;;
54464;SDS011;40374;49.480;20.016;2023-02-28T11:14:21;10.52;;;5.65;;
54464;SDS011;40374;49.480;20.016;2023-02-28T11:16:54;12.13;;;5.90;;
54464;SDS011;40374;49.480;20.016;2023-02-28T11:19:30;12.75;;;6.30;;
54464;SDS011;40374;49.480;20.016;2023-02-28T11:22:08;10.55;;;5.93;;
54464;SDS011;40374;49.480;20.016;2023-02-28T11:24:40;18.55;;;6.53;;
54464;SDS011;40374;49.480;20.016;2023-02-28T11:33:28;12.30;;;6.25;;
54464;SDS011;40374;49.480;20.016;2023-02-28T11:36:03;14.48;;;6.82;;
54464;SDS011;40374;49.480;20.016;2023-02-28T11:38:39;16.67;;;6.80;;
54464;SDS011;40374;49.480;20.016;2023-02-28T11:41:19;18.08;;;6.88;;
54464;SDS011;40374;49.480;20.016;2023-02-28T11:50:52;16.80;;;6.28;;
54464;SDS011;40374;49.480;20.016;2023-02-28T11:53:34;14.40;;;7.13;;
54464;SDS011;40374;49.480;20.016;2023-02-28T11:56:36;12.13;;;6.78;;
54464;SDS011;40374;49.480;20.016;2023-02-28T12:05:17;13.68;;;6.80;;
54464;SDS011;40374;49.480;20.016;2023-02-28T12:07:50;13.77;;;7.18;;
54464;SDS011;40374;49.480;20.016;2023-02-28T12:10:22;17.60;;;7.35;;
54464;SDS011;40374;49.480;20.016;2023-02-28T12:12:58;15.70;;;6.78;;
54464;SDS011;40374;49.480;20.016;2023-02-28T12:26:31;14.93;;;7.57;;
54464;SDS011;40374;49.480;20.016;2023-02-28T12:31:58;15.73;;;7.20;;
54464;SDS011;40374;49.480;20.016;2023-02-28T12:37:14;15.30;;;7.38;;
54464;SDS011;40374;49.480;20.016;2023-02-28T12:39:49;13.20;;;6.75;;
54464;SDS011;40374;49.480;20.016;2023-02-28T12:42:27;13.35;;;7.70;;
54464;SDS011;40374;49.480;20.016;2023-02-28T12:45:11;12.85;;;6.72;;
54464;SDS011;40374;49.480;20.016;2023-02-28T12:47:46;15.23;;;7.30;;
54464;SDS011;40374;49.480;20.016;2023-02-28T12:50:18;13.02;;;6.90;;
54464;SDS011;40374;49.480;20.016;2023-02-28T12:52:48;12.85;;;6.85;;
54464;SDS011;40374;49.480;20.016;2023-02-28T13:05:04;15.40;;;7.40;;
54464;SDS011;40374;49.480;20.016;2023-02-28T13:10:44;17.02;;;8.30;;
54464;SDS011;40374;49.480;20.016;2023-02-28T13:13:18;17.48;;;7.88;;
54464;SDS011;40374;49.480;20.016;2023-02-28T13:16:09;16.55;;;7.75;;
54464;SDS011;40374;49.480;20.016;2023-02-28T13:18:39;12.68;;;7.60;;
54464;SDS011;40374;49.480;20.016;2023-02-28T13:21:32;13.43;;;7.20;;
54464;SDS011;40374;49.480;20.016;2023-02-28T13:24:08;17.70;;;6.65;;
54464;SDS011;40374;49.480;20.016;2023-02-28T13:29:10;16.92;;;8.35;;
54464;SDS011;40374;49.480;20.016;2023-02-28T13:39:50;18.42;;;8.32;;
54464;SDS011;40374;49.480;20.016;2023-02-28T13:55:48;15.88;;;7.35;;
54464;SDS011;40374;49.480;20.016;2023-02-28T14:02:06;19.77;;;8.85;;
54464;SDS011;40374;49.480;20.016;2023-02-28T14:04:57;20.60;;;8.80;;
54464;SDS011;40374;49.480;20.016;2023-02-28T14:07:33;21.27;;;9.27;;
54464;SDS011;40374;49.480;20.016;2023-02-28T14:10:20;18.75;;;9.02;;
54464;SDS011;40374;49.480;20.016;2023-02-28T14:18:28;19.83;;;8.40;;
54464;SDS011;40374;49.480;20.016;2023-02-28T14:21:07;14.85;;;7.72;;
54464;SDS011;40374;49.480;20.016;2023-02-28T14:31:33;22.75;;;9.10;;
54464;SDS011;40374;49.480;20.016;2023-02-28T14:36:51;23.63;;;10.32;;
54464;SDS011;40374;49.480;20.016;2023-02-28T14:39:25;21.90;;;9.52;;
54464;SDS011;40374;49.480;20.016;2023-02-28T14:41:54;17.75;;;9.00;;
54464;SDS011;40374;49.480;20.016;2023-02-28T14:44:23;23.75;;;9.23;;
54464;SDS011;40374;49.480;20.016;2023-02-28T14:46:59;27.40;;;10.70;;
54464;SDS011;40374;49.480;20.016;2023-02-28T14:49:51;27.48;;;12.30;;
54464;SDS011;40374;49.480;20.016;2023-02-28T14:52:23;21.13;;;10.17;;
54464;SDS011;40374;49.480;20.016;2023-02-28T14:54:58;20.57;;;11.10;;
54464;SDS011;40374;49.480;20.016;2023-02-28T14:57:28;24.92;;;11.02;;
54464;SDS011;40374;49.480;20.016;2023-02-28T15:02:39;29.52;;;10.88;;
54464;SDS011;40374;49.480;20.016;2023-02-28T15:07:44;27.75;;;10.23;;
54464;SDS011;40374;49.480;20.016;2023-02-28T15:13:05;35.42;;;12.93;;
54464;SDS011;40374;49.480;20.016;2023-02-28T15:18:48;34.13;;;12.93;;
54464;SDS011;40374;49.480;20.016;2023-02-28T15:21:21;30.60;;;12.43;;
54464;SDS011;40374;49.480;20.016;2023-02-28T15:24:06;30.08;;;13.52;;
54464;SDS011;40374;49.480;20.016;2023-02-28T15:26:53;26.20;;;12.95;;
54464;SDS011;40374;49.480;20.016;2023-02-28T15:29:25;30.35;;;11.57;;
54464;SDS011;40374;49.480;20.016;2023-02-28T15:31:56;25.40;;;10.43;;
54464;SDS011;40374;49.480;20.016;2023-02-28T15:34:33;24.05;;;11.13;;
54464;SDS011;40374;49.480;20.016;2023-02-28T15:39:58;24.02;;;11.80;;
54464;SDS011;40374;49.480;20.016;2023-02-28T15:42:43;29.45;;;12.85;;
54464;SDS011;40374;49.480;20.016;2023-02-28T15:45:35;27.20;;;11.88;;
54464;SDS011;40374;49.480;20.016;2023-02-28T15:51:17;24.10;;;12.43;;
54464;SDS011;40374;49.480;20.016;2023-02-28T15:53:49;29.52;;;13.05;;
54464;SDS011;40374;49.480;20.016;2023-02-28T15:56:25;44.42;;;13.95;;
54464;SDS011;40374;49.480;20.016;2023-02-28T15:58:57;33.23;;;14.30;;
54464;SDS011;40374;49.480;20.016;2023-02-28T16:01:28;42.25;;;16.35;;
54464;SDS011;40374;49.480;20.016;2023-02-28T16:04:01;48.83;;;18.20;;
54464;SDS011;40374;49.480;20.016;2023-02-28T16:09:04;52.20;;;19.60;;
54464;SDS011;40374;49.480;20.016;2023-02-28T16:11:37;43.42;;;16.63;;
54464;SDS011;40374;49.480;20.016;2023-02-28T16:14:11;36.78;;;17.02;;
54464;SDS011;40374;49.480;20.016;2023-02-28T16:16:43;54.03;;;20.05;;
54464;SDS011;40374;49.480;20.016;2023-02-28T16:19:13;45.08;;;19.38;;
54464;SDS011;40374;49.480;20.016;2023-02-28T16:21:40;45.80;;;17.17;;
54464;SDS011;40374;49.480;20.016;2023-02-28T16:24:08;53.15;;;22.77;;
54464;SDS011;40374;49.480;20.016;2023-02-28T16:26:36;51.78;;;21.60;;
54464;SDS011;40374;49.480;20.016;2023-02-28T16:29:06;47.00;;;20.25;;
54464;SDS011;40374;49.480;20.016;2023-02-28T16:31:37;61.80;;;22.33;;
54464;SDS011;40374;49.480;20.016;2023-02-28T16:34:05;55.78;;;22.42;;
54464;SDS011;40374;49.480;20.016;2023-02-28T16:36:32;51.30;;;22.73;;
54464;SDS011;40374;49.480;20.016;2023-02-28T16:39:00;51.30;;;22.15;;
54464;SDS011;40374;49.480;20.016;2023-02-28T16:41:29;54.28;;;21.70;;
54464;SDS011;40374;49.480;20.016;2023-02-28T16:43:58;59.20;;;24.10;;
54464;SDS011;40374;49.480;20.016;2023-02-28T16:46:27;74.68;;;26.58;;
54464;SDS011;40374;49.480;20.016;2023-02-28T16:49:00;123.72;;;38.90;;
54464;SDS011;40374;49.480;20.016;2023-02-28T16:51:27;99.40;;;32.58;;
54464;SDS011;40374;49.480;20.016;2023-02-28T16:53:56;108.22;;;38.33;;
54464;SDS011;40374;49.480;20.016;2023-02-28T16:56:23;140.63;;;39.90;;
54464;SDS011;40374;49.480;20.016;2023-02-28T16:58:52;113.35;;;40.65;;
54464;SDS011;40374;49.480;20.016;2023-02-28T17:01:31;105.35;;;36.65;;
54464;SDS011;40374;49.480;20.016;2023-02-28T17:04:02;62.88;;;23.42;;
54464;SDS011;40374;49.480;20.016;2023-02-28T17:06:32;68.03;;;24.67;;
54464;SDS011;40374;49.480;20.016;2023-02-28T17:09:00;66.80;;;27.35;;
54464;SDS011;40374;49.480;20.016;2023-02-28T17:11:28;67.68;;;27.48;;
54464;SDS011;40374;49.480;20.016;2023-02-28T17:13:56;65.45;;;25.05;;
54464;SDS011;40374;49.480;20.016;2023-02-28T17:16:30;76.28;;;22.60;;
54464;SDS011;40374;49.480;20.016;2023-02-28T17:19:02;51.03;;;20.02;;
54464;SDS011;40374;49.480;20.016;2023-02-28T17:21:31;101.28;;;35.03;;
54464;SDS011;40374;49.480;20.016;2023-02-28T17:24:00;134.73;;;48.15;;
54464;SDS011;40374;49.480;20.016;2023-02-28T17:26:27;143.88;;;53.60;;